Lowest pressure

Not for real navigation. The accuracy of this data is not assured See disclaimer for more information



ICAO NAME COUNTRY WIND Kt GUST Kt VIS m TEMP/DEW C BARO METAR
CYQX Gander Int. Airport, Nfld. Canada 9 0 6400 0/-1 28.81 CYQX 190649Z 13009KT 4SM -SHSN FEW007 FEW012 SCT028 BKN042 BKN070 M00/M01 A2881 RMK SF1SC1SC2SC2AC1
CYDF Deer Lake, Nfld. Canada 3 0 24000 0/0 28.83 CYDF 190600Z 36003KT 15SM -SN OVC015 00/M00 A2883 RMK SC8 SLP764
BIRK Reykjavik Iceland 14 0 9999 6/1 28.91 BIRK 190600Z 10014KT 9999 FEW022 BKN037 BKN044 06/01 Q0979 RESHRA
BIVM Vestmannaeyjar Iceland 20 0 8500 6/5 28.91 BIVM 190632Z 12020KT 8500 RA SCT012 BKN025 06/05 Q0979
CYJT Stephenville, Nfld. Canada 13 19 3200 1/0 28.91 CYJT 190653Z 32013G19KT 2 0.5SM BR OVC008 01/M00 A2891 RMK FG3SF5 SLP792

Show more